createdAt,value
2019-01-09T00:00:33.801Z,51.6
2019-01-09T00:05:32.232Z,51.6
2019-01-09T00:10:30.764Z,51.6
2019-01-09T00:15:29.158Z,51.6
2019-01-09T00:20:27.709Z,51.6
2019-01-09T00:25:25.711Z,51.6
2019-01-09T00:30:24.188Z,51.6
2019-01-09T00:35:22.602Z,51.6
2019-01-09T00:40:20.840Z,51.6
2019-01-09T00:45:19.195Z,51.6
2019-01-09T00:50:17.655Z,51.6
2019-01-09T00:55:16.115Z,51.6
2019-01-09T01:00:14.543Z,51.6
2019-01-09T01:05:13.181Z,51.6
2019-01-09T01:10:11.688Z,51.6
2019-01-09T01:15:09.599Z,51.7
2019-01-09T01:20:08.156Z,51.7
2019-01-09T01:25:06.565Z,51.7
2019-01-09T01:30:05.013Z,51.7
2019-01-09T01:35:03.447Z,51.7
2019-01-09T01:40:01.919Z,51.7
2019-01-09T01:45:00.416Z,51.7
2019-01-09T01:49:58.747Z,51.7
2019-01-09T01:54:57.248Z,51.7
2019-01-09T01:59:55.716Z,51.8
2019-01-09T02:04:54.244Z,51.7
2019-01-09T02:09:52.438Z,51.7
2019-01-09T02:14:50.910Z,51.8
2019-01-09T02:19:49.500Z,51.7
2019-01-09T02:24:47.965Z,51.7
2019-01-09T02:29:46.392Z,51.8
2019-01-09T02:34:44.793Z,51.9
2019-01-09T02:39:43.272Z,52
2019-01-09T02:44:41.563Z,52
2019-01-09T02:49:40.055Z,52.2
2019-01-09T02:54:38.433Z,52.2
2019-01-09T02:59:37.065Z,52.2
2019-01-09T03:04:35.512Z,52.2
2019-01-09T03:09:34.006Z,52.2
2019-01-09T03:14:32.438Z,52.2
2019-01-09T03:19:30.854Z,52.1
2019-01-09T03:24:29.341Z,52.1
2019-01-09T03:29:28.162Z,52.1
2019-01-09T03:34:26.613Z,52.1
2019-01-09T03:39:25.081Z,52
2019-01-09T03:44:23.516Z,52
2019-01-09T03:49:22.014Z,52
2019-01-09T03:54:20.621Z,52
2019-01-09T03:59:19.276Z,52
2019-01-09T04:04:17.690Z,52
2019-01-09T04:09:15.909Z,52
2019-01-09T04:14:14.403Z,52
2019-01-09T04:19:12.894Z,52
2019-01-09T04:24:10.649Z,52
2019-01-09T04:29:09.222Z,52
2019-01-09T04:34:07.736Z,52
2019-01-09T04:39:06.264Z,52
2019-01-09T04:44:04.846Z,52
2019-01-09T04:49:02.943Z,52
2019-01-09T04:54:01.430Z,52
2019-01-09T04:58:59.960Z,52
2019-01-09T05:03:58.454Z,52
2019-01-09T05:08:57.066Z,52
2019-01-09T05:13:55.370Z,52
2019-01-09T05:18:53.309Z,52
2019-01-09T05:23:51.629Z,52
2019-01-09T05:28:50.254Z,52
2019-01-09T05:33:48.747Z,51.9
2019-01-09T05:38:46.647Z,52
2019-01-09T05:43:45.149Z,51.9
2019-01-09T05:48:43.645Z,51.9
2019-01-09T05:53:41.673Z,51.9
2019-01-09T05:58:40.089Z,51.9
2019-01-09T06:03:38.586Z,51.9
2019-01-09T06:08:37.093Z,51.9
2019-01-09T06:13:34.891Z,51.9
2019-01-09T06:18:33.399Z,51.9
2019-01-09T06:23:31.841Z,51.9
2019-01-09T06:28:30.500Z,51.9
2019-01-09T06:33:28.968Z,51.8
2019-01-09T06:38:27.377Z,51.8
2019-01-09T06:43:25.587Z,51.9
2019-01-09T06:48:24.191Z,51.8
2019-01-09T06:53:22.604Z,51.8
2019-01-09T06:58:21.168Z,51.8
2019-01-09T07:03:19.635Z,51.8
2019-01-09T07:08:18.191Z,51.8
2019-01-09T07:13:16.805Z,51.8
2019-01-09T07:18:15.211Z,51.8
2019-01-09T07:23:13.724Z,51.8
2019-01-09T07:28:12.397Z,51.8
2019-01-09T07:33:10.928Z,51.8
2019-01-09T07:38:09.616Z,51.8
2019-01-09T07:43:08.071Z,51.8
2019-01-09T07:48:06.779Z,51.8
2019-01-09T07:53:05.218Z,51.8
2019-01-09T07:58:03.464Z,51.8
2019-01-09T08:03:02.011Z,51.8
2019-01-09T08:08:00.374Z,51.8
2019-01-09T08:12:58.996Z,51.8
2019-01-09T08:17:57.475Z,51.9
2019-01-09T08:22:56.025Z,51.9
2019-01-09T08:27:54.539Z,51.8
2019-01-09T08:32:52.982Z,51.9
2019-01-09T08:37:51.364Z,51.9
2019-01-09T08:42:49.626Z,51.9
2019-01-09T08:47:47.947Z,51.9
2019-01-09T08:52:46.354Z,51.9
2019-01-09T08:57:44.878Z,51.9
2019-01-09T09:02:43.413Z,52
2019-01-09T09:07:41.934Z,52
2019-01-09T09:12:40.694Z,52
2019-01-09T09:17:39.042Z,52.1
2019-01-09T09:22:37.676Z,52.1
2019-01-09T09:27:36.186Z,52.2
2019-01-09T09:32:34.668Z,52.2
2019-01-09T09:37:33.368Z,52.3
2019-01-09T09:42:32.016Z,52.4
2019-01-09T09:47:30.619Z,52.4
2019-01-09T09:52:29.163Z,52.5
2019-01-09T09:57:27.564Z,52.5
2019-01-09T10:02:26.327Z,52.6
2019-01-09T10:07:24.814Z,52.7
2019-01-09T10:12:23.520Z,52.7
2019-01-09T10:17:21.926Z,52.7
2019-01-09T10:22:20.162Z,52.8
2019-01-09T10:27:18.482Z,52.9
2019-01-09T10:32:16.981Z,52.9
2019-01-09T10:37:15.066Z,52.9
2019-01-09T10:42:13.248Z,52.9
2019-01-09T10:47:11.914Z,53
2019-01-09T10:52:10.429Z,53.1
2019-01-09T10:57:08.331Z,53.1
2019-01-09T11:02:06.891Z,53.1
2019-01-09T11:07:05.486Z,53.2
2019-01-09T11:12:04.090Z,53.3
2019-01-09T11:17:02.516Z,53.5
2019-01-09T11:22:01.107Z,53.6
2019-01-09T11:26:59.533Z,53.6
2019-01-09T11:31:58.117Z,53.7
2019-01-09T11:36:56.498Z,53.6
2019-01-09T11:41:55.016Z,53.6
2019-01-09T11:46:53.424Z,53.7
2019-01-09T11:51:52.047Z,53.6
2019-01-09T11:56:50.647Z,53.7
2019-01-09T12:01:48.795Z,53.6
2019-01-09T12:06:47.397Z,53.7
2019-01-09T12:11:46.379Z,53.6
2019-01-09T12:16:44.886Z,53.7
2019-01-09T12:21:43.317Z,53.7
2019-01-09T12:26:41.853Z,53.7
2019-01-09T12:31:40.587Z,53.7
2019-01-09T12:36:39.192Z,53.7
2019-01-09T12:41:37.612Z,53.7
2019-01-09T12:46:36.140Z,53.7
2019-01-09T12:51:34.736Z,53.7
2019-01-09T12:56:33.339Z,53.7
2019-01-09T13:01:31.910Z,53.9
2019-01-09T13:06:30.432Z,54
2019-01-09T13:11:29.025Z,54
2019-01-09T13:16:27.600Z,54
2019-01-09T13:21:26.156Z,54
2019-01-09T13:26:24.808Z,54.1
2019-01-09T13:31:23.373Z,54.1
2019-01-09T13:36:22.048Z,54.1
2019-01-09T13:41:20.558Z,54
2019-01-09T13:46:19.270Z,54.1
2019-01-09T13:51:17.940Z,54
2019-01-09T13:56:16.694Z,54
2019-01-09T14:01:15.265Z,54
2019-01-09T14:06:13.324Z,53.9
2019-01-09T14:11:12.042Z,53.9
2019-01-09T14:16:09.803Z,53.9
2019-01-09T14:21:08.387Z,53.9
2019-01-09T14:26:06.399Z,53.9
2019-01-09T14:31:04.895Z,53.8
2019-01-09T14:36:03.398Z,53.8
2019-01-09T14:41:01.975Z,53.8
2019-01-09T14:46:00.432Z,53.8
2019-01-09T14:50:59.098Z,53.8
2019-01-09T14:55:57.575Z,53.8
2019-01-09T15:00:56.214Z,53.8
2019-01-09T15:05:54.881Z,53.9
2019-01-09T15:10:53.371Z,53.9
2019-01-09T15:15:51.993Z,54
2019-01-09T15:20:50.445Z,54
2019-01-09T15:25:49.334Z,54
2019-01-09T15:30:47.410Z,54
2019-01-09T15:35:45.925Z,53.9
2019-01-09T15:40:44.452Z,53.9
2019-01-09T15:45:43.003Z,53.9
2019-01-09T15:50:41.640Z,53.9
2019-01-09T15:55:40.228Z,53.9
2019-01-09T16:00:38.693Z,53.9
2019-01-09T16:05:37.389Z,53.9
2019-01-09T16:10:35.884Z,53.9
2019-01-09T16:15:34.985Z,53.9
2019-01-09T16:20:33.079Z,53.9
2019-01-09T16:25:31.693Z,53.9
2019-01-09T16:30:34.717Z,53.9
2019-01-09T16:35:32.305Z,53.8
2019-01-09T16:40:30.887Z,53.8
2019-01-09T16:45:29.424Z,53.8
2019-01-09T16:50:27.977Z,53.8
2019-01-09T16:55:26.533Z,53.8
2019-01-09T17:00:25.167Z,53.8
2019-01-09T17:05:24.154Z,53.7
2019-01-09T17:10:22.520Z,53.9
2019-01-09T17:15:21.746Z,53.8
2019-01-09T17:20:20.561Z,53.8
2019-01-09T17:25:19.629Z,53.9
2019-01-09T17:30:18.252Z,53.9
2019-01-09T17:35:16.345Z,53.8
2019-01-09T17:40:14.663Z,53.8
2019-01-09T17:45:13.025Z,53.8
2019-01-09T17:50:11.798Z,53.9
2019-01-09T17:55:10.075Z,53.8
2019-01-09T18:00:08.709Z,53.8
2019-01-09T18:05:06.982Z,53.8
2019-01-09T18:10:05.733Z,53.8
2019-01-09T18:15:04.454Z,53.9
2019-01-09T18:20:02.886Z,53.8
2019-01-09T18:25:01.520Z,53.8
2019-01-09T18:30:00.562Z,53.8
2019-01-09T18:34:59.334Z,53.8
2019-01-09T18:39:57.959Z,53.7
2019-01-09T18:44:56.342Z,53.8
2019-01-09T18:49:55.240Z,53.8
2019-01-09T18:54:53.912Z,53.8
2019-01-09T18:59:52.495Z,53.8
2019-01-09T19:04:50.941Z,53.7
2019-01-09T19:09:49.424Z,53.7
2019-01-09T19:14:48.173Z,53.8
2019-01-09T19:19:46.952Z,53.7
2019-01-09T19:24:45.428Z,53.8
2019-01-09T19:29:43.970Z,53.8
2019-01-09T19:34:42.397Z,53.7
2019-01-09T19:39:40.827Z,53.7
2019-01-09T19:44:39.238Z,53.7
2019-01-09T19:49:37.784Z,53.7
2019-01-09T19:54:36.300Z,53.7
2019-01-09T19:59:34.872Z,53.7
2019-01-09T20:04:33.536Z,53.7
2019-01-09T20:09:31.985Z,53.7
2019-01-09T20:14:30.413Z,53.7
2019-01-09T20:19:29.088Z,53.7
2019-01-09T20:24:27.830Z,53.6
2019-01-09T20:29:25.977Z,53.6
2019-01-09T20:34:24.577Z,53.6
2019-01-09T20:39:23.137Z,53.6
2019-01-09T20:44:21.818Z,53.6
2019-01-09T20:49:20.461Z,53.6
2019-01-09T20:54:19.183Z,53.6
2019-01-09T20:59:17.874Z,53.5
2019-01-09T21:04:16.521Z,53.5
2019-01-09T21:09:15.091Z,53.6
2019-01-09T21:14:13.313Z,53.5
2019-01-09T21:19:12.163Z,53.5
2019-01-09T21:24:10.357Z,53.5
2019-01-09T21:29:08.923Z,53.5
2019-01-09T21:34:07.482Z,53.5
2019-01-09T21:39:05.836Z,53.5
2019-01-09T21:44:04.365Z,53.5
2019-01-09T21:49:02.867Z,53.5
2019-01-09T21:54:01.359Z,53.5
2019-01-09T21:58:59.742Z,53.5
2019-01-09T22:03:58.280Z,53.5
2019-01-09T22:08:56.872Z,53.5
2019-01-09T22:13:55.602Z,53.5
2019-01-09T22:18:54.244Z,53.5
2019-01-09T22:23:52.655Z,53.5
2019-01-09T22:28:51.216Z,53.5
2019-01-09T22:33:49.598Z,53.5
2019-01-09T22:38:48.250Z,53.5
2019-01-09T22:43:46.604Z,53.4
2019-01-09T22:48:45.181Z,53.5
2019-01-09T22:53:43.634Z,53.4
2019-01-09T22:58:42.203Z,53.4
2019-01-09T23:03:40.663Z,53.5
2019-01-09T23:08:39.114Z,53.5
2019-01-09T23:13:37.645Z,53.4
2019-01-09T23:18:36.129Z,53.4
2019-01-09T23:23:34.642Z,53.5
2019-01-09T23:28:33.093Z,53.5
2019-01-09T23:33:31.583Z,53.4
2019-01-09T23:38:30.135Z,53.4
2019-01-09T23:43:28.775Z,53.4
2019-01-09T23:48:27.385Z,53.5
2019-01-09T23:53:25.832Z,53.4
2019-01-09T23:58:24.225Z,53.4
